createdAt,value
2018-07-22T00:00:46.728Z,99.90
2018-07-22T00:03:16.309Z,99.90
2018-07-22T00:05:45.161Z,99.90
2018-07-22T00:08:14.010Z,99.90
2018-07-22T00:10:43.612Z,99.90
2018-07-22T00:13:12.456Z,99.90
2018-07-22T00:15:41.314Z,99.90
2018-07-22T00:18:10.172Z,99.80
2018-07-22T00:20:39.036Z,99.30
2018-07-22T00:23:07.891Z,99.40
2018-07-22T00:25:36.732Z,99.70
2018-07-22T00:28:05.578Z,99.30
2018-07-22T00:30:34.430Z,99.80
2018-07-22T00:33:04.013Z,99.90
2018-07-22T00:38:02.729Z,99.80
2018-07-22T00:40:32.304Z,99.90
2018-07-22T00:43:01.162Z,99.90
2018-07-22T00:45:30.008Z,99.90
2018-07-22T00:47:59.589Z,99.90
2018-07-22T00:50:28.441Z,99.90
2018-07-22T00:52:57.285Z,99.90
2018-07-22T00:55:26.135Z,99.90
2018-07-22T00:57:54.974Z,99.90
2018-07-22T01:00:23.818Z,99.50
2018-07-22T01:02:52.657Z,99.50
2018-07-22T01:05:21.507Z,99.50
2018-07-22T01:07:50.351Z,99.50
2018-07-22T01:10:19.195Z,99.30
2018-07-22T01:12:48.040Z,99.60
2018-07-22T01:15:16.887Z,99.60
2018-07-22T01:17:45.729Z,99.90
2018-07-22T01:20:14.565Z,99.80
2018-07-22T01:22:43.414Z,99.60
2018-07-22T01:25:12.254Z,99.70
2018-07-22T01:27:41.850Z,99.50
2018-07-22T01:30:10.692Z,99.80
2018-07-22T01:32:39.539Z,99.60
2018-07-22T01:35:08.393Z,99.50
2018-07-22T01:37:37.230Z,99.00
2018-07-22T01:40:06.077Z,99.10
2018-07-22T01:42:34.920Z,99.10
2018-07-22T01:45:03.766Z,99.10
2018-07-22T01:47:32.603Z,99.00
2018-07-22T01:50:01.454Z,99.00
2018-07-22T01:52:30.301Z,98.90
2018-07-22T01:54:59.141Z,98.80
2018-07-22T01:57:28.722Z,98.90
2018-07-22T01:59:57.575Z,99.00
2018-07-22T02:02:26.414Z,98.80
2018-07-22T02:04:55.268Z,98.80
2018-07-22T02:07:24.107Z,98.80
2018-07-22T02:09:52.947Z,98.80
2018-07-22T02:12:21.790Z,99.00
2018-07-22T02:14:51.372Z,99.00
2018-07-22T02:17:20.215Z,99.00
2018-07-22T02:19:49.063Z,99.10
2018-07-22T02:22:17.908Z,99.40
2018-07-22T02:24:46.771Z,99.30
2018-07-22T02:27:15.604Z,99.30
2018-07-22T02:29:44.444Z,99.40
2018-07-22T02:32:13.293Z,98.80
2018-07-22T02:34:42.141Z,98.90
2018-07-22T02:37:10.986Z,99.40
2018-07-22T02:42:09.270Z,99.20
2018-07-22T02:44:38.112Z,98.90
2018-07-22T02:47:06.954Z,98.80
2018-07-22T02:49:35.799Z,99.10
2018-07-22T02:52:04.643Z,99.30
2018-07-22T02:54:34.245Z,99.30
2018-07-22T02:57:03.087Z,99.40
2018-07-22T02:59:31.925Z,99.40
2018-07-22T03:02:00.770Z,99.40
2018-07-22T03:04:29.612Z,99.40
2018-07-22T03:06:59.196Z,99.40
2018-07-22T03:09:28.038Z,99.30
2018-07-22T03:11:56.873Z,99.90
2018-07-22T03:14:25.715Z,99.90
2018-07-22T03:16:54.557Z,99.80
2018-07-22T03:19:23.407Z,99.70
2018-07-22T03:21:52.251Z,99.80
2018-07-22T03:24:21.104Z,99.70
2018-07-22T03:29:11.136Z,99.40
2018-07-22T03:31:40.733Z,99.70
2018-07-22T03:34:09.568Z,99.40
2018-07-22T03:36:38.410Z,99.70
2018-07-22T03:39:07.260Z,99.40
2018-07-22T03:41:36.096Z,99.40
2018-07-22T03:44:05.688Z,99.60
2018-07-22T03:46:34.532Z,99.70
2018-07-22T03:49:03.373Z,99.90
2018-07-22T03:51:32.210Z,99.90
2018-07-22T03:54:01.055Z,99.90
2018-07-22T03:56:29.904Z,99.90
2018-07-22T03:58:58.742Z,99.90
2018-07-22T04:01:28.337Z,99.90
2018-07-22T04:03:57.215Z,99.90
2018-07-22T04:06:26.060Z,99.40
2018-07-22T04:08:54.892Z,99.70
2018-07-22T04:11:23.742Z,99.70
2018-07-22T04:13:52.620Z,99.90
2018-07-22T04:16:22.208Z,99.60
2018-07-22T04:18:51.053Z,99.50
2018-07-22T04:21:19.907Z,99.60
2018-07-22T04:23:48.766Z,99.20
2018-07-22T04:26:17.618Z,98.60
2018-07-22T04:28:46.459Z,98.70
2018-07-22T04:31:15.300Z,98.70
2018-07-22T04:33:44.173Z,98.60
2018-07-22T04:36:13.016Z,98.70
2018-07-22T04:38:41.875Z,98.40
2018-07-22T04:41:10.723Z,98.30
2018-07-22T04:43:39.559Z,97.90
2018-07-22T04:46:08.394Z,97.40
2018-07-22T04:48:37.232Z,97.50
2018-07-22T04:51:06.070Z,97.50
2018-07-22T04:53:34.945Z,97.30
2018-07-22T04:56:04.491Z,97.10
2018-07-22T04:58:33.329Z,97.00
2018-07-22T05:01:02.182Z,97.00
2018-07-22T05:03:31.032Z,97.10
2018-07-22T05:05:59.900Z,97.30
2018-07-22T05:08:28.754Z,97.10
2018-07-22T05:10:57.599Z,97.60
2018-07-22T05:13:26.439Z,96.80
2018-07-22T05:15:55.290Z,96.60
2018-07-22T05:18:24.136Z,96.70
2018-07-22T05:20:53.001Z,96.40
2018-07-22T05:23:21.847Z,95.10
2018-07-22T05:25:50.698Z,95.50
2018-07-22T05:28:19.593Z,95.60
2018-07-22T05:30:48.383Z,95.50
2018-07-22T05:33:17.220Z,95.60
2018-07-22T05:35:46.110Z,95.60
2018-07-22T05:38:14.901Z,95.50
2018-07-22T05:40:43.754Z,94.80
2018-07-22T05:43:12.592Z,95.00
2018-07-22T05:45:41.443Z,94.80
2018-07-22T05:48:11.015Z,94.80
2018-07-22T05:50:39.860Z,94.60
2018-07-22T05:53:10.110Z,94.20
2018-07-22T05:55:38.959Z,94.00
2018-07-22T05:58:07.843Z,94.20
2018-07-22T06:00:36.646Z,93.90
2018-07-22T06:03:05.545Z,94.20
2018-07-22T06:05:34.337Z,93.90
2018-07-22T06:08:03.187Z,93.70
2018-07-22T06:10:32.031Z,93.70
2018-07-22T06:13:00.877Z,93.50
2018-07-22T06:15:30.467Z,93.30
2018-07-22T06:17:59.308Z,93.50
2018-07-22T06:20:28.180Z,93.30
2018-07-22T06:22:57.039Z,93.00
2018-07-22T06:25:25.879Z,92.90
2018-07-22T06:27:54.723Z,93.00
2018-07-22T06:30:23.582Z,93.10
2018-07-22T06:32:52.420Z,93.20
2018-07-22T06:35:21.315Z,93.20
2018-07-22T06:37:50.116Z,92.90
2018-07-22T06:40:18.974Z,92.10
2018-07-22T06:42:48.564Z,91.90
2018-07-22T06:45:17.429Z,92.00
2018-07-22T06:47:46.284Z,91.60
2018-07-22T06:50:15.123Z,91.50
2018-07-22T06:52:43.960Z,91.60
2018-07-22T06:55:13.573Z,91.20
2018-07-22T06:57:43.160Z,91.40
2018-07-22T07:00:12.025Z,90.80
2018-07-22T07:02:40.868Z,91.10
2018-07-22T07:05:09.746Z,90.90
2018-07-22T07:07:38.567Z,90.50
2018-07-22T07:10:07.431Z,90.60
2018-07-22T07:12:36.288Z,90.20
2018-07-22T07:15:05.140Z,90.20
2018-07-22T07:17:33.996Z,90.20
2018-07-22T07:20:03.593Z,90.20
2018-07-22T07:22:32.441Z,89.80
2018-07-22T07:25:01.281Z,90.00
2018-07-22T07:27:30.878Z,90.10
2018-07-22T07:29:59.719Z,90.00
2018-07-22T07:32:28.565Z,90.00
2018-07-22T07:34:58.162Z,90.30
2018-07-22T07:37:27.010Z,90.20
2018-07-22T07:39:55.857Z,90.00
2018-07-22T07:42:24.801Z,90.00
2018-07-22T07:44:53.609Z,89.60
2018-07-22T07:47:22.443Z,89.80
2018-07-22T07:49:51.293Z,89.10
2018-07-22T07:52:20.148Z,89.20
2018-07-22T07:54:48.996Z,88.80
2018-07-22T07:57:17.848Z,89.30
2018-07-22T07:59:46.696Z,88.20
2018-07-22T08:02:15.546Z,88.60
2018-07-22T08:04:44.399Z,88.50
2018-07-22T08:07:13.247Z,88.30
2018-07-22T08:09:42.097Z,87.40
2018-07-22T08:12:10.946Z,87.50
2018-07-22T08:14:39.793Z,88.00
2018-07-22T08:17:08.637Z,88.00
2018-07-22T08:19:37.486Z,87.60
2018-07-22T08:22:07.097Z,86.80
2018-07-22T08:24:35.920Z,87.50
2018-07-22T08:27:04.770Z,87.00
2018-07-22T08:29:33.622Z,87.40
2018-07-22T08:32:02.488Z,87.00
2018-07-22T08:34:31.346Z,87.00
2018-07-22T08:39:30.356Z,86.70
2018-07-22T08:41:59.215Z,86.70
2018-07-22T08:44:28.064Z,86.90
2018-07-22T08:46:56.917Z,86.60
2018-07-22T08:49:25.759Z,86.70
2018-07-22T08:51:54.599Z,86.40
2018-07-22T08:56:52.909Z,86.30
2018-07-22T08:59:22.495Z,85.50
2018-07-22T09:01:51.365Z,84.30
2018-07-22T09:04:20.226Z,84.10
2018-07-22T09:06:49.068Z,84.30
2018-07-22T09:09:17.927Z,83.50
2018-07-22T09:11:46.780Z,82.60
2018-07-22T09:14:15.629Z,82.20
2018-07-22T09:16:44.504Z,82.60
2018-07-22T09:19:13.347Z,81.50
2018-07-22T09:21:42.196Z,82.30
2018-07-22T09:24:11.057Z,83.40
2018-07-22T09:26:39.897Z,82.70
2018-07-22T09:29:09.499Z,82.20
2018-07-22T09:31:39.092Z,82.90
2018-07-22T09:34:07.954Z,82.50
2018-07-22T09:36:36.861Z,82.50
2018-07-22T09:39:05.689Z,83.60
2018-07-22T09:41:34.531Z,83.80
2018-07-22T09:44:03.393Z,83.80
2018-07-22T09:46:32.247Z,83.60
2018-07-22T09:49:01.868Z,82.20
2018-07-22T09:51:30.678Z,83.10
2018-07-22T09:53:59.521Z,83.20
2018-07-22T09:56:28.363Z,82.20
2018-07-22T09:58:57.220Z,81.50
2018-07-22T10:01:26.070Z,80.70
2018-07-22T10:03:54.925Z,80.30
2018-07-22T10:06:23.776Z,80.30
2018-07-22T10:08:53.373Z,80.80
2018-07-22T10:11:22.239Z,79.30
2018-07-22T10:13:51.092Z,79.30
2018-07-22T10:16:19.933Z,79.40
2018-07-22T10:18:48.795Z,79.20
2018-07-22T10:21:17.631Z,78.90
2018-07-22T10:23:47.223Z,79.20
2018-07-22T10:26:16.086Z,78.10
2018-07-22T10:28:44.986Z,79.50
2018-07-22T10:31:13.805Z,77.90
2018-07-22T10:33:42.641Z,77.30
2018-07-22T10:36:11.489Z,75.80
2018-07-22T10:38:41.076Z,75.90
2018-07-22T10:41:10.060Z,75.00
2018-07-22T10:43:38.790Z,73.90
2018-07-22T10:46:07.633Z,74.30
2018-07-22T10:48:36.495Z,74.70
2018-07-22T10:51:05.400Z,75.40
2018-07-22T10:53:34.203Z,76.00
2018-07-22T10:56:03.056Z,75.50
2018-07-22T10:58:31.905Z,74.90
2018-07-22T11:01:01.508Z,74.30
2018-07-22T11:03:30.350Z,73.30
2018-07-22T11:05:59.201Z,73.90
2018-07-22T11:08:28.051Z,74.10
2018-07-22T11:10:56.898Z,74.00
2018-07-22T11:13:25.754Z,72.70
2018-07-22T11:15:54.610Z,72.00
2018-07-22T11:18:23.467Z,73.10
2018-07-22T11:20:52.341Z,73.20
2018-07-22T11:23:21.170Z,72.70
2018-07-22T11:25:50.025Z,71.90
2018-07-22T11:28:18.878Z,70.40
2018-07-22T11:30:47.727Z,71.00
2018-07-22T11:33:16.572Z,70.50
2018-07-22T11:35:46.165Z,70.50
2018-07-22T11:38:15.008Z,71.10
2018-07-22T11:40:43.852Z,68.80
2018-07-22T11:43:13.485Z,69.40
2018-07-22T11:45:42.338Z,69.50
2018-07-22T11:48:11.186Z,68.70
2018-07-22T11:50:40.045Z,69.50
2018-07-22T11:53:08.891Z,68.80
2018-07-22T11:55:37.736Z,68.20
2018-07-22T11:58:06.590Z,68.10
2018-07-22T12:00:35.439Z,67.90
2018-07-22T12:03:04.292Z,67.40
2018-07-22T12:05:33.132Z,68.90
2018-07-22T12:08:01.977Z,68.30
2018-07-22T12:10:31.572Z,67.50
2018-07-22T12:13:01.172Z,65.70
2018-07-22T12:15:30.030Z,65.90
2018-07-22T12:17:58.904Z,66.00
2018-07-22T12:20:27.758Z,65.30
2018-07-22T12:22:56.622Z,65.90
2018-07-22T12:25:25.474Z,66.10
2018-07-22T12:27:54.467Z,64.40
2018-07-22T12:30:23.316Z,64.70
2018-07-22T12:32:52.910Z,65.40
2018-07-22T12:35:21.786Z,65.50
2018-07-22T12:37:50.594Z,64.00
2018-07-22T12:40:19.442Z,63.60
2018-07-22T12:42:48.283Z,63.40
2018-07-22T12:45:17.141Z,63.00
2018-07-22T12:47:45.983Z,62.80
2018-07-22T12:50:14.880Z,62.40
2018-07-22T12:52:43.681Z,63.40
2018-07-22T12:55:12.531Z,61.70
2018-07-22T12:57:41.393Z,61.40
2018-07-22T13:00:10.239Z,60.70
2018-07-22T13:02:39.101Z,60.80
2018-07-22T13:05:08.716Z,60.30
2018-07-22T13:07:38.307Z,61.40
2018-07-22T13:10:07.164Z,60.30
2018-07-22T13:12:36.021Z,60.20
2018-07-22T13:15:04.873Z,60.00
2018-07-22T13:17:33.740Z,59.80
2018-07-22T13:20:02.604Z,58.70
2018-07-22T13:22:31.444Z,58.80
2018-07-22T13:25:00.305Z,59.40
2018-07-22T13:27:29.170Z,59.20
2018-07-22T13:29:58.001Z,58.50
2018-07-22T13:32:26.847Z,59.50
2018-07-22T13:34:55.689Z,59.50
2018-07-22T13:37:24.534Z,59.70
2018-07-22T13:39:53.386Z,60.30
2018-07-22T13:42:22.984Z,59.40
2018-07-22T13:44:51.835Z,57.10
2018-07-22T13:47:20.689Z,57.60
2018-07-22T13:49:49.541Z,56.90
2018-07-22T13:52:18.381Z,56.80
2018-07-22T13:54:47.225Z,57.20
2018-07-22T13:57:16.063Z,57.60
2018-07-22T13:59:45.670Z,57.80
2018-07-22T14:02:15.260Z,56.50
2018-07-22T14:04:44.852Z,56.10
2018-07-22T14:07:13.742Z,56.70
2018-07-22T14:09:42.550Z,56.50
2018-07-22T14:12:11.400Z,55.30
2018-07-22T14:14:40.288Z,55.80
2018-07-22T14:17:09.888Z,54.10
2018-07-22T14:19:38.744Z,53.10
2018-07-22T14:22:07.598Z,54.70
2018-07-22T14:24:37.183Z,53.00
2018-07-22T14:27:06.024Z,53.70
2018-07-22T14:29:34.882Z,53.70
2018-07-22T14:32:03.734Z,52.50
2018-07-22T14:34:32.566Z,53.90
2018-07-22T14:37:02.160Z,55.30
2018-07-22T14:39:31.005Z,55.00
2018-07-22T14:41:59.848Z,55.40
2018-07-22T14:44:29.423Z,56.70
2018-07-22T14:46:58.291Z,58.20
2018-07-22T14:49:27.118Z,57.90
2018-07-22T14:51:55.952Z,60.40
2018-07-22T14:54:25.536Z,63.10
2018-07-22T14:56:54.367Z,65.50
2018-07-22T14:59:23.211Z,68.60
2018-07-22T15:01:52.056Z,71.60
2018-07-22T15:04:20.907Z,77.90
2018-07-22T15:06:50.497Z,86.30
2018-07-22T15:09:19.362Z,95.20
2018-07-22T15:11:48.202Z,99.90
2018-07-22T15:14:17.772Z,99.90
2018-07-22T15:16:46.617Z,99.90
2018-07-22T15:19:15.480Z,99.90
2018-07-22T15:21:44.320Z,99.90
2018-07-22T15:24:13.159Z,99.90
2018-07-22T15:26:42.751Z,99.90
2018-07-22T15:29:11.646Z,99.90
2018-07-22T15:31:40.453Z,99.90
2018-07-22T15:34:09.309Z,99.90
2018-07-22T15:36:38.159Z,99.90
2018-07-22T15:39:06.999Z,99.90
2018-07-22T15:41:35.845Z,99.90
2018-07-22T15:44:04.685Z,99.90
2018-07-22T15:46:33.695Z,99.90
2018-07-22T15:49:02.404Z,99.90
2018-07-22T15:51:31.258Z,99.90
2018-07-22T15:54:00.843Z,99.90
2018-07-22T15:56:29.688Z,99.90
2018-07-22T15:58:58.533Z,99.90
2018-07-22T16:01:27.409Z,99.90
2018-07-22T16:03:56.251Z,99.90
2018-07-22T16:06:25.115Z,99.90
2018-07-22T16:08:53.973Z,99.90
2018-07-22T16:11:22.846Z,99.90
2018-07-22T16:13:51.680Z,99.90
2018-07-22T16:16:20.561Z,99.90
2018-07-22T16:18:49.410Z,99.90
2018-07-22T16:21:18.277Z,99.90
2018-07-22T16:23:47.136Z,99.90
2018-07-22T16:26:15.976Z,99.90
2018-07-22T16:28:44.838Z,99.90
2018-07-22T16:31:13.685Z,99.90
2018-07-22T16:33:42.595Z,99.90
2018-07-22T16:36:11.392Z,99.90
2018-07-22T16:38:40.244Z,99.90
2018-07-22T16:41:09.840Z,99.90
2018-07-22T16:43:38.700Z,99.90
2018-07-22T16:46:07.548Z,99.90
2018-07-22T16:48:36.396Z,99.90
2018-07-22T16:51:05.240Z,99.90
2018-07-22T16:53:34.123Z,99.90
2018-07-22T16:56:02.946Z,99.90
2018-07-22T16:58:31.796Z,99.90
2018-07-22T17:01:01.374Z,99.90
2018-07-22T17:03:30.218Z,99.90
2018-07-22T17:05:59.056Z,99.90
2018-07-22T17:08:27.912Z,99.90
2018-07-22T17:10:56.756Z,99.90
2018-07-22T17:13:25.606Z,99.90
2018-07-22T17:15:54.456Z,99.90
2018-07-22T17:18:24.065Z,99.90
2018-07-22T17:20:53.675Z,99.90
2018-07-22T17:23:22.515Z,99.90
2018-07-22T17:25:51.367Z,99.90
2018-07-22T17:28:20.951Z,99.90
2018-07-22T17:30:49.797Z,99.90
2018-07-22T17:33:18.652Z,99.90
2018-07-22T17:35:48.241Z,99.90
2018-07-22T17:38:17.085Z,99.90
2018-07-22T17:40:45.939Z,99.90
2018-07-22T17:43:14.787Z,99.90
2018-07-22T17:45:43.637Z,99.90
2018-07-22T17:48:12.496Z,99.90
2018-07-22T17:50:41.364Z,99.90
2018-07-22T17:53:10.221Z,99.90
2018-07-22T17:55:39.059Z,99.90
2018-07-22T17:58:07.934Z,99.90
2018-07-22T18:00:36.783Z,99.90
2018-07-22T18:03:05.647Z,99.90
2018-07-22T18:05:35.266Z,99.90
2018-07-22T18:08:04.851Z,99.90
2018-07-22T18:10:33.693Z,99.90
2018-07-22T18:13:02.552Z,99.90
2018-07-22T18:15:31.396Z,99.90
2018-07-22T18:18:00.250Z,99.90
2018-07-22T18:20:29.859Z,99.90
2018-07-22T18:22:58.752Z,99.90
2018-07-22T18:25:28.292Z,99.90
2018-07-22T18:27:57.134Z,99.90
2018-07-22T18:30:25.997Z,99.90
2018-07-22T18:32:55.589Z,99.90
2018-07-22T18:35:24.452Z,99.90
2018-07-22T18:37:53.321Z,99.90
2018-07-22T18:40:22.167Z,99.90
2018-07-22T18:42:51.026Z,99.90
2018-07-22T18:45:19.881Z,99.90
2018-07-22T18:47:48.987Z,99.90
2018-07-22T18:50:17.802Z,99.90
2018-07-22T18:52:46.663Z,99.90
2018-07-22T18:55:15.778Z,99.90
2018-07-22T18:57:44.793Z,99.90
2018-07-22T19:00:13.852Z,99.90
2018-07-22T19:02:42.949Z,99.90
2018-07-22T19:05:12.048Z,99.90
2018-07-22T19:07:41.151Z,99.90
2018-07-22T19:10:10.244Z,99.90
2018-07-22T19:12:39.332Z,99.90
2018-07-22T19:15:08.153Z,99.90
2018-07-22T19:17:37.047Z,99.90
2018-07-22T19:20:05.895Z,99.90
2018-07-22T19:22:34.734Z,99.90
2018-07-22T19:25:04.347Z,99.90
2018-07-22T19:27:33.189Z,99.90
2018-07-22T19:30:02.047Z,99.90
2018-07-22T19:32:30.931Z,99.90
2018-07-22T19:34:59.763Z,99.90
2018-07-22T19:37:28.610Z,99.90
2018-07-22T19:39:57.471Z,99.90
2018-07-22T19:42:26.309Z,99.90
2018-07-22T19:44:55.157Z,99.90
2018-07-22T19:47:24.755Z,99.90
2018-07-22T19:49:53.615Z,99.90
2018-07-22T19:52:22.468Z,99.90
2018-07-22T19:54:51.328Z,99.90
2018-07-22T19:57:20.917Z,99.90
2018-07-22T19:59:49.750Z,99.90
2018-07-22T20:02:18.646Z,99.90
2018-07-22T20:04:47.456Z,99.80
2018-07-22T20:07:16.295Z,99.90
2018-07-22T20:09:45.946Z,99.90
2018-07-22T20:12:14.781Z,99.90
2018-07-22T20:14:43.634Z,99.90
2018-07-22T20:17:13.236Z,99.90
2018-07-22T20:19:42.830Z,99.90
2018-07-22T20:22:11.693Z,99.90
2018-07-22T20:24:40.544Z,99.90
2018-07-22T20:27:09.376Z,99.90
2018-07-22T20:29:38.222Z,99.90
2018-07-22T20:32:07.086Z,99.90
2018-07-22T20:34:35.972Z,99.90
2018-07-22T20:37:04.840Z,99.90
2018-07-22T20:39:33.681Z,99.90
2018-07-22T20:42:02.554Z,99.90
2018-07-22T20:44:31.398Z,99.90
2018-07-22T20:47:00.285Z,99.90
2018-07-22T20:49:29.107Z,99.90
2018-07-22T20:51:57.950Z,99.90
2018-07-22T20:54:26.809Z,99.90
2018-07-22T20:56:55.701Z,99.90
2018-07-22T20:59:24.565Z,99.90
2018-07-22T21:01:53.411Z,99.90
2018-07-22T21:04:22.999Z,99.90
2018-07-22T21:06:51.871Z,99.90
2018-07-22T21:09:20.708Z,99.90
2018-07-22T21:11:49.560Z,99.90
2018-07-22T21:14:18.429Z,99.90
2018-07-22T21:16:47.267Z,99.90
2018-07-22T21:19:16.868Z,99.90
2018-07-22T21:21:46.461Z,99.90
2018-07-22T21:24:16.088Z,99.90
2018-07-22T21:26:44.970Z,99.90
2018-07-22T21:29:13.774Z,99.90
2018-07-22T21:31:42.628Z,99.90
2018-07-22T21:34:11.542Z,99.90
2018-07-22T21:36:41.130Z,99.90
2018-07-22T21:39:09.985Z,99.90
2018-07-22T21:41:38.841Z,99.90
2018-07-22T21:44:07.685Z,99.90
2018-07-22T21:46:36.529Z,99.90
2018-07-22T21:49:05.395Z,99.90
2018-07-22T21:51:34.247Z,99.90
2018-07-22T21:54:03.098Z,99.90
2018-07-22T21:56:31.951Z,99.90
2018-07-22T21:59:01.533Z,99.90
2018-07-22T22:01:30.375Z,99.90
2018-07-22T22:03:59.228Z,99.90
2018-07-22T22:06:28.811Z,99.90
2018-07-22T22:08:57.657Z,99.90
2018-07-22T22:11:26.498Z,99.90
2018-07-22T22:13:55.345Z,99.90
2018-07-22T22:16:24.186Z,99.90
2018-07-22T22:18:53.035Z,99.90
2018-07-22T22:21:21.886Z,99.90
2018-07-22T22:23:50.731Z,99.90
2018-07-22T22:26:19.588Z,99.90
2018-07-22T22:28:48.449Z,99.90
2018-07-22T22:31:18.028Z,99.90
2018-07-22T22:33:46.896Z,99.90
2018-07-22T22:36:15.747Z,99.90
2018-07-22T22:38:45.329Z,99.90
2018-07-22T22:41:14.182Z,99.90
2018-07-22T22:43:43.025Z,99.90
2018-07-22T22:46:12.632Z,99.90
2018-07-22T22:48:41.480Z,99.90
2018-07-22T22:51:10.318Z,99.90
2018-07-22T22:53:39.176Z,99.90
2018-07-22T22:56:08.017Z,99.90
2018-07-22T22:58:51.412Z,99.90
2018-07-22T23:01:20.266Z,99.90
2018-07-22T23:03:49.853Z,99.90
2018-07-22T23:06:18.701Z,99.90
2018-07-22T23:08:47.559Z,99.90
2018-07-22T23:11:16.405Z,99.90
2018-07-22T23:13:46.780Z,99.90
2018-07-22T23:16:15.620Z,99.90
2018-07-22T23:18:44.472Z,99.90
2018-07-22T23:21:14.068Z,99.90
2018-07-22T23:23:42.921Z,99.90
2018-07-22T23:26:11.754Z,99.90
2018-07-22T23:28:40.603Z,99.90
2018-07-22T23:31:09.441Z,99.90
2018-07-22T23:33:38.301Z,99.90
2018-07-22T23:36:07.152Z,99.90
2018-07-22T23:38:36.018Z,99.90
2018-07-22T23:41:04.881Z,99.90
2018-07-22T23:43:33.801Z,99.90
2018-07-22T23:46:03.372Z,99.90
2018-07-22T23:48:32.217Z,99.90
2018-07-22T23:51:01.058Z,99.90
2018-07-22T23:53:29.896Z,99.90
2018-07-22T23:55:58.740Z,99.90
2018-07-22T23:58:27.598Z,99.90
